sensor_id;sensor_type;location;lat;lon;timestamp;P1;durP1;ratioP1;P2;durP2;ratioP2
18200;SDS011;9226;47.858;9.594;2023-03-03T00:01:16;59.87;;;19.80;;
18200;SDS011;9226;47.858;9.594;2023-03-03T00:03:42;56.43;;;19.63;;
18200;SDS011;9226;47.858;9.594;2023-03-03T00:06:09;66.13;;;19.67;;
18200;SDS011;9226;47.858;9.594;2023-03-03T00:08:37;69.40;;;20.20;;
18200;SDS011;9226;47.858;9.594;2023-03-03T00:11:03;64.10;;;18.43;;
18200;SDS011;9226;47.858;9.594;2023-03-03T00:13:31;62.43;;;19.43;;
18200;SDS011;9226;47.858;9.594;2023-03-03T00:18:40;66.30;;;19.43;;
18200;SDS011;9226;47.858;9.594;2023-03-03T00:21:41;65.03;;;18.70;;
18200;SDS011;9226;47.858;9.594;2023-03-03T00:26:47;67.23;;;19.63;;
18200;SDS011;9226;47.858;9.594;2023-03-03T00:29:24;64.43;;;21.73;;
18200;SDS011;9226;47.858;9.594;2023-03-03T00:31:50;65.00;;;19.33;;
18200;SDS011;9226;47.858;9.594;2023-03-03T00:36:41;64.47;;;19.83;;
18200;SDS011;9226;47.858;9.594;2023-03-03T00:39:18;62.93;;;19.60;;
18200;SDS011;9226;47.858;9.594;2023-03-03T00:41:48;60.87;;;19.47;;
18200;SDS011;9226;47.858;9.594;2023-03-03T00:46:56;56.93;;;18.23;;
18200;SDS011;9226;47.858;9.594;2023-03-03T00:49:36;63.27;;;20.27;;
18200;SDS011;9226;47.858;9.594;2023-03-03T00:52:01;64.43;;;20.73;;
18200;SDS011;9226;47.858;9.594;2023-03-03T00:54:26;62.23;;;20.50;;
18200;SDS011;9226;47.858;9.594;2023-03-03T00:56:52;67.13;;;20.83;;
18200;SDS011;9226;47.858;9.594;2023-03-03T00:59:17;61.50;;;19.67;;
18200;SDS011;9226;47.858;9.594;2023-03-03T01:01:42;62.30;;;19.20;;
18200;SDS011;9226;47.858;9.594;2023-03-03T01:04:08;65.23;;;19.57;;
18200;SDS011;9226;47.858;9.594;2023-03-03T01:06:33;60.27;;;19.27;;
18200;SDS011;9226;47.858;9.594;2023-03-03T01:08:59;61.27;;;21.57;;
18200;SDS011;9226;47.858;9.594;2023-03-03T01:11:25;65.90;;;20.10;;
18200;SDS011;9226;47.858;9.594;2023-03-03T01:13:52;61.20;;;19.83;;
18200;SDS011;9226;47.858;9.594;2023-03-03T01:16:18;58.67;;;19.37;;
18200;SDS011;9226;47.858;9.594;2023-03-03T01:18:44;63.63;;;21.07;;
18200;SDS011;9226;47.858;9.594;2023-03-03T01:21:10;60.90;;;19.87;;
18200;SDS011;9226;47.858;9.594;2023-03-03T01:23:36;72.50;;;20.17;;
18200;SDS011;9226;47.858;9.594;2023-03-03T01:26:02;63.87;;;20.10;;
18200;SDS011;9226;47.858;9.594;2023-03-03T01:28:28;60.03;;;19.77;;
18200;SDS011;9226;47.858;9.594;2023-03-03T01:30:54;135.40;;;41.80;;
18200;SDS011;9226;47.858;9.594;2023-03-03T01:33:24;71.70;;;24.73;;
18200;SDS011;9226;47.858;9.594;2023-03-03T01:35:50;88.67;;;26.40;;
18200;SDS011;9226;47.858;9.594;2023-03-03T01:38:15;73.67;;;23.87;;
18200;SDS011;9226;47.858;9.594;2023-03-03T01:40:40;73.67;;;23.90;;
18200;SDS011;9226;47.858;9.594;2023-03-03T01:43:06;72.27;;;24.73;;
18200;SDS011;9226;47.858;9.594;2023-03-03T01:48:15;73.87;;;21.63;;
18200;SDS011;9226;47.858;9.594;2023-03-03T01:50:55;74.90;;;21.67;;
18200;SDS011;9226;47.858;9.594;2023-03-03T01:56:07;60.83;;;21.90;;
18200;SDS011;9226;47.858;9.594;2023-03-03T01:58:34;63.63;;;20.17;;
18200;SDS011;9226;47.858;9.594;2023-03-03T02:01:03;56.60;;;19.83;;
18200;SDS011;9226;47.858;9.594;2023-03-03T02:03:33;67.17;;;21.00;;
18200;SDS011;9226;47.858;9.594;2023-03-03T02:06:01;60.77;;;19.83;;
18200;SDS011;9226;47.858;9.594;2023-03-03T02:08:32;58.47;;;20.53;;
18200;SDS011;9226;47.858;9.594;2023-03-03T02:11:06;63.30;;;19.97;;
18200;SDS011;9226;47.858;9.594;2023-03-03T02:13:33;70.93;;;21.07;;
18200;SDS011;9226;47.858;9.594;2023-03-03T02:15:58;66.03;;;19.73;;
18200;SDS011;9226;47.858;9.594;2023-03-03T02:18:24;64.20;;;20.23;;
18200;SDS011;9226;47.858;9.594;2023-03-03T02:21:07;63.73;;;20.43;;
18200;SDS011;9226;47.858;9.594;2023-03-03T02:28:34;68.80;;;20.37;;
18200;SDS011;9226;47.858;9.594;2023-03-03T02:31:02;63.77;;;19.40;;
18200;SDS011;9226;47.858;9.594;2023-03-03T02:33:29;63.63;;;19.20;;
18200;SDS011;9226;47.858;9.594;2023-03-03T02:35:55;72.73;;;22.00;;
18200;SDS011;9226;47.858;9.594;2023-03-03T02:38:25;63.53;;;21.13;;
18200;SDS011;9226;47.858;9.594;2023-03-03T02:41:02;68.60;;;21.40;;
18200;SDS011;9226;47.858;9.594;2023-03-03T02:43:45;64.83;;;19.33;;
18200;SDS011;9226;47.858;9.594;2023-03-03T02:46:12;64.97;;;20.07;;
18200;SDS011;9226;47.858;9.594;2023-03-03T02:48:38;69.70;;;21.13;;
18200;SDS011;9226;47.858;9.594;2023-03-03T02:51:03;72.87;;;21.40;;
18200;SDS011;9226;47.858;9.594;2023-03-03T02:53:29;65.30;;;20.20;;
18200;SDS011;9226;47.858;9.594;2023-03-03T02:55:54;68.90;;;21.63;;
18200;SDS011;9226;47.858;9.594;2023-03-03T02:58:19;64.40;;;20.10;;
18200;SDS011;9226;47.858;9.594;2023-03-03T03:00:45;65.03;;;20.37;;
18200;SDS011;9226;47.858;9.594;2023-03-03T03:03:11;62.77;;;20.77;;
18200;SDS011;9226;47.858;9.594;2023-03-03T03:05:38;72.40;;;21.80;;
18200;SDS011;9226;47.858;9.594;2023-03-03T03:08:03;66.70;;;19.80;;
18200;SDS011;9226;47.858;9.594;2023-03-03T03:10:29;68.63;;;20.60;;
18200;SDS011;9226;47.858;9.594;2023-03-03T03:12:54;61.90;;;20.10;;
18200;SDS011;9226;47.858;9.594;2023-03-03T03:15:19;66.30;;;21.63;;
18200;SDS011;9226;47.858;9.594;2023-03-03T03:17:45;60.73;;;21.10;;
18200;SDS011;9226;47.858;9.594;2023-03-03T03:20:10;58.50;;;20.40;;
18200;SDS011;9226;47.858;9.594;2023-03-03T03:22:36;73.90;;;21.73;;
18200;SDS011;9226;47.858;9.594;2023-03-03T03:25:01;70.10;;;21.17;;
18200;SDS011;9226;47.858;9.594;2023-03-03T03:27:27;71.80;;;22.67;;
18200;SDS011;9226;47.858;9.594;2023-03-03T03:29:52;71.83;;;21.47;;
18200;SDS011;9226;47.858;9.594;2023-03-03T03:32:17;70.47;;;20.97;;
18200;SDS011;9226;47.858;9.594;2023-03-03T03:34:43;62.40;;;22.10;;
18200;SDS011;9226;47.858;9.594;2023-03-03T03:37:08;74.13;;;22.20;;
18200;SDS011;9226;47.858;9.594;2023-03-03T03:39:34;67.77;;;21.73;;
18200;SDS011;9226;47.858;9.594;2023-03-03T03:42:00;73.03;;;21.30;;
18200;SDS011;9226;47.858;9.594;2023-03-03T03:44:25;65.27;;;20.87;;
18200;SDS011;9226;47.858;9.594;2023-03-03T03:46:51;67.03;;;19.97;;
18200;SDS011;9226;47.858;9.594;2023-03-03T03:49:16;74.60;;;20.93;;
18200;SDS011;9226;47.858;9.594;2023-03-03T03:51:42;71.57;;;22.40;;
18200;SDS011;9226;47.858;9.594;2023-03-03T03:54:07;70.93;;;21.00;;
18200;SDS011;9226;47.858;9.594;2023-03-03T03:56:32;64.00;;;20.47;;
18200;SDS011;9226;47.858;9.594;2023-03-03T03:58:58;65.97;;;22.50;;
18200;SDS011;9226;47.858;9.594;2023-03-03T04:01:24;68.33;;;20.57;;
18200;SDS011;9226;47.858;9.594;2023-03-03T04:03:50;76.00;;;21.83;;
18200;SDS011;9226;47.858;9.594;2023-03-03T04:06:15;67.93;;;21.13;;
18200;SDS011;9226;47.858;9.594;2023-03-03T04:08:41;69.67;;;21.93;;
18200;SDS011;9226;47.858;9.594;2023-03-03T04:11:06;72.17;;;23.33;;
18200;SDS011;9226;47.858;9.594;2023-03-03T04:13:32;75.37;;;21.83;;
18200;SDS011;9226;47.858;9.594;2023-03-03T04:15:59;72.53;;;21.33;;
18200;SDS011;9226;47.858;9.594;2023-03-03T04:18:25;74.57;;;22.17;;
18200;SDS011;9226;47.858;9.594;2023-03-03T04:20:50;60.80;;;21.17;;
18200;SDS011;9226;47.858;9.594;2023-03-03T04:23:18;69.17;;;21.17;;
18200;SDS011;9226;47.858;9.594;2023-03-03T04:25:47;65.73;;;21.50;;
18200;SDS011;9226;47.858;9.594;2023-03-03T04:28:13;64.23;;;20.93;;
18200;SDS011;9226;47.858;9.594;2023-03-03T04:30:39;66.50;;;20.77;;
18200;SDS011;9226;47.858;9.594;2023-03-03T04:33:05;66.03;;;21.53;;
18200;SDS011;9226;47.858;9.594;2023-03-03T04:35:31;63.10;;;21.03;;
18200;SDS011;9226;47.858;9.594;2023-03-03T04:37:56;62.00;;;20.83;;
18200;SDS011;9226;47.858;9.594;2023-03-03T04:40:21;69.70;;;22.10;;
18200;SDS011;9226;47.858;9.594;2023-03-03T04:42:47;66.13;;;20.23;;
18200;SDS011;9226;47.858;9.594;2023-03-03T04:45:12;66.60;;;20.93;;
18200;SDS011;9226;47.858;9.594;2023-03-03T04:47:38;65.63;;;21.37;;
18200;SDS011;9226;47.858;9.594;2023-03-03T04:50:03;70.13;;;22.10;;
18200;SDS011;9226;47.858;9.594;2023-03-03T04:52:29;69.80;;;21.77;;
18200;SDS011;9226;47.858;9.594;2023-03-03T04:54:54;70.50;;;20.63;;
18200;SDS011;9226;47.858;9.594;2023-03-03T04:57:20;61.23;;;19.60;;
18200;SDS011;9226;47.858;9.594;2023-03-03T04:59:45;81.20;;;22.33;;
18200;SDS011;9226;47.858;9.594;2023-03-03T05:02:10;63.70;;;21.53;;
18200;SDS011;9226;47.858;9.594;2023-03-03T05:04:37;62.40;;;20.83;;
18200;SDS011;9226;47.858;9.594;2023-03-03T05:07:02;61.87;;;20.57;;
18200;SDS011;9226;47.858;9.594;2023-03-03T05:09:28;64.63;;;21.53;;
18200;SDS011;9226;47.858;9.594;2023-03-03T05:11:54;60.40;;;19.23;;
18200;SDS011;9226;47.858;9.594;2023-03-03T05:14:19;68.03;;;22.47;;
18200;SDS011;9226;47.858;9.594;2023-03-03T05:16:45;62.47;;;20.50;;
18200;SDS011;9226;47.858;9.594;2023-03-03T05:19:10;57.60;;;20.00;;
18200;SDS011;9226;47.858;9.594;2023-03-03T05:21:36;62.80;;;20.50;;
18200;SDS011;9226;47.858;9.594;2023-03-03T05:24:06;64.90;;;20.17;;
18200;SDS011;9226;47.858;9.594;2023-03-03T05:26:32;70.27;;;21.80;;
18200;SDS011;9226;47.858;9.594;2023-03-03T05:28:58;65.87;;;21.63;;
18200;SDS011;9226;47.858;9.594;2023-03-03T05:31:23;61.33;;;21.13;;
18200;SDS011;9226;47.858;9.594;2023-03-03T05:33:51;65.83;;;20.60;;
18200;SDS011;9226;47.858;9.594;2023-03-03T05:36:17;59.97;;;20.20;;
18200;SDS011;9226;47.858;9.594;2023-03-03T05:38:42;72.23;;;20.17;;
18200;SDS011;9226;47.858;9.594;2023-03-03T05:41:07;69.43;;;22.10;;
18200;SDS011;9226;47.858;9.594;2023-03-03T05:43:33;75.17;;;22.80;;
18200;SDS011;9226;47.858;9.594;2023-03-03T05:45:59;60.53;;;20.77;;
18200;SDS011;9226;47.858;9.594;2023-03-03T05:48:25;67.30;;;21.33;;
18200;SDS011;9226;47.858;9.594;2023-03-03T05:50:50;64.37;;;20.50;;
18200;SDS011;9226;47.858;9.594;2023-03-03T05:53:16;74.50;;;24.57;;
18200;SDS011;9226;47.858;9.594;2023-03-03T05:55:41;79.43;;;24.00;;
18200;SDS011;9226;47.858;9.594;2023-03-03T05:58:07;65.43;;;21.87;;
18200;SDS011;9226;47.858;9.594;2023-03-03T06:00:32;73.43;;;22.53;;
18200;SDS011;9226;47.858;9.594;2023-03-03T06:02:57;68.63;;;21.73;;
18200;SDS011;9226;47.858;9.594;2023-03-03T06:05:23;67.27;;;21.77;;
18200;SDS011;9226;47.858;9.594;2023-03-03T06:07:48;65.60;;;21.57;;
18200;SDS011;9226;47.858;9.594;2023-03-03T06:10:14;65.13;;;21.80;;
18200;SDS011;9226;47.858;9.594;2023-03-03T06:12:39;67.83;;;21.33;;
18200;SDS011;9226;47.858;9.594;2023-03-03T06:15:06;73.33;;;21.57;;
18200;SDS011;9226;47.858;9.594;2023-03-03T06:17:32;71.83;;;24.47;;
18200;SDS011;9226;47.858;9.594;2023-03-03T06:19:57;82.50;;;24.70;;
18200;SDS011;9226;47.858;9.594;2023-03-03T06:22:23;81.83;;;23.20;;
18200;SDS011;9226;47.858;9.594;2023-03-03T06:24:48;77.50;;;23.17;;
18200;SDS011;9226;47.858;9.594;2023-03-03T06:27:13;72.10;;;24.07;;
18200;SDS011;9226;47.858;9.594;2023-03-03T06:29:39;73.50;;;22.80;;
18200;SDS011;9226;47.858;9.594;2023-03-03T06:32:04;66.33;;;21.80;;
18200;SDS011;9226;47.858;9.594;2023-03-03T06:34:30;67.33;;;23.07;;
18200;SDS011;9226;47.858;9.594;2023-03-03T06:36:55;76.77;;;24.73;;
18200;SDS011;9226;47.858;9.594;2023-03-03T06:39:21;72.93;;;21.47;;
18200;SDS011;9226;47.858;9.594;2023-03-03T06:41:46;75.17;;;22.43;;
18200;SDS011;9226;47.858;9.594;2023-03-03T06:44:12;77.80;;;24.33;;
18200;SDS011;9226;47.858;9.594;2023-03-03T06:46:37;77.83;;;23.43;;
18200;SDS011;9226;47.858;9.594;2023-03-03T06:49:03;77.13;;;23.87;;
18200;SDS011;9226;47.858;9.594;2023-03-03T06:51:33;66.97;;;22.17;;
18200;SDS011;9226;47.858;9.594;2023-03-03T06:54:13;75.30;;;22.93;;
18200;SDS011;9226;47.858;9.594;2023-03-03T06:56:41;70.97;;;22.60;;
18200;SDS011;9226;47.858;9.594;2023-03-03T06:59:12;76.43;;;23.40;;
18200;SDS011;9226;47.858;9.594;2023-03-03T07:01:40;73.77;;;21.43;;
18200;SDS011;9226;47.858;9.594;2023-03-03T07:04:49;74.23;;;22.83;;
18200;SDS011;9226;47.858;9.594;2023-03-03T07:06:57;71.03;;;24.37;;
18200;SDS011;9226;47.858;9.594;2023-03-03T07:09:29;71.97;;;23.33;;
18200;SDS011;9226;47.858;9.594;2023-03-03T07:11:56;68.27;;;22.47;;
18200;SDS011;9226;47.858;9.594;2023-03-03T07:14:25;69.77;;;22.13;;
18200;SDS011;9226;47.858;9.594;2023-03-03T07:16:51;73.40;;;23.33;;
18200;SDS011;9226;47.858;9.594;2023-03-03T07:19:55;77.53;;;23.87;;
18200;SDS011;9226;47.858;9.594;2023-03-03T07:22:18;80.47;;;22.97;;
18200;SDS011;9226;47.858;9.594;2023-03-03T07:24:49;75.10;;;23.77;;
18200;SDS011;9226;47.858;9.594;2023-03-03T07:27:20;71.37;;;23.50;;
18200;SDS011;9226;47.858;9.594;2023-03-03T07:29:49;68.73;;;21.73;;
18200;SDS011;9226;47.858;9.594;2023-03-03T07:34:54;66.20;;;21.57;;
18200;SDS011;9226;47.858;9.594;2023-03-03T07:42:51;74.17;;;22.03;;
18200;SDS011;9226;47.858;9.594;2023-03-03T07:47:51;71.17;;;23.50;;
18200;SDS011;9226;47.858;9.594;2023-03-03T07:50:36;82.20;;;23.90;;
18200;SDS011;9226;47.858;9.594;2023-03-03T07:53:04;71.10;;;24.20;;
18200;SDS011;9226;47.858;9.594;2023-03-03T07:55:58;73.83;;;25.37;;
18200;SDS011;9226;47.858;9.594;2023-03-03T07:58:34;78.93;;;25.30;;
18200;SDS011;9226;47.858;9.594;2023-03-03T08:03:58;66.13;;;22.03;;
18200;SDS011;9226;47.858;9.594;2023-03-03T08:09:45;66.33;;;22.70;;
18200;SDS011;9226;47.858;9.594;2023-03-03T08:14:39;75.83;;;21.57;;
18200;SDS011;9226;47.858;9.594;2023-03-03T08:17:15;68.40;;;22.07;;
18200;SDS011;9226;47.858;9.594;2023-03-03T08:19:45;76.53;;;23.30;;
18200;SDS011;9226;47.858;9.594;2023-03-03T08:22:17;61.20;;;21.87;;
18200;SDS011;9226;47.858;9.594;2023-03-03T08:24:49;60.70;;;22.07;;
18200;SDS011;9226;47.858;9.594;2023-03-03T08:27:15;66.23;;;22.30;;
18200;SDS011;9226;47.858;9.594;2023-03-03T08:29:40;71.30;;;24.17;;
18200;SDS011;9226;47.858;9.594;2023-03-03T08:32:06;82.13;;;25.83;;
18200;SDS011;9226;47.858;9.594;2023-03-03T08:34:31;79.77;;;24.77;;
18200;SDS011;9226;47.858;9.594;2023-03-03T08:36:57;69.57;;;23.07;;
18200;SDS011;9226;47.858;9.594;2023-03-03T08:39:22;70.93;;;22.90;;
18200;SDS011;9226;47.858;9.594;2023-03-03T08:41:48;78.03;;;25.03;;
18200;SDS011;9226;47.858;9.594;2023-03-03T08:44:13;79.13;;;26.13;;
18200;SDS011;9226;47.858;9.594;2023-03-03T08:46:38;76.07;;;24.67;;
18200;SDS011;9226;47.858;9.594;2023-03-03T08:49:04;77.13;;;24.73;;
18200;SDS011;9226;47.858;9.594;2023-03-03T08:51:29;80.03;;;23.23;;
18200;SDS011;9226;47.858;9.594;2023-03-03T08:53:57;71.37;;;24.27;;
18200;SDS011;9226;47.858;9.594;2023-03-03T08:56:24;80.77;;;24.10;;
18200;SDS011;9226;47.858;9.594;2023-03-03T08:58:49;71.37;;;23.60;;
18200;SDS011;9226;47.858;9.594;2023-03-03T09:01:15;71.13;;;23.70;;
18200;SDS011;9226;47.858;9.594;2023-03-03T09:03:41;67.10;;;22.73;;
18200;SDS011;9226;47.858;9.594;2023-03-03T09:06:07;74.90;;;24.27;;
18200;SDS011;9226;47.858;9.594;2023-03-03T09:08:33;81.07;;;24.60;;
18200;SDS011;9226;47.858;9.594;2023-03-03T09:10:59;67.77;;;23.37;;
18200;SDS011;9226;47.858;9.594;2023-03-03T09:13:27;67.37;;;24.00;;
18200;SDS011;9226;47.858;9.594;2023-03-03T09:15:54;76.07;;;25.13;;
18200;SDS011;9226;47.858;9.594;2023-03-03T09:18:34;71.30;;;23.60;;
18200;SDS011;9226;47.858;9.594;2023-03-03T09:21:05;77.63;;;24.03;;
18200;SDS011;9226;47.858;9.594;2023-03-03T09:23:56;70.80;;;23.53;;
18200;SDS011;9226;47.858;9.594;2023-03-03T09:26:30;72.63;;;22.60;;
18200;SDS011;9226;47.858;9.594;2023-03-03T09:31:45;77.47;;;25.00;;
18200;SDS011;9226;47.858;9.594;2023-03-03T09:36:49;69.53;;;23.73;;
18200;SDS011;9226;47.858;9.594;2023-03-03T09:39:23;73.40;;;24.20;;
18200;SDS011;9226;47.858;9.594;2023-03-03T09:49:56;75.57;;;24.73;;
18200;SDS011;9226;47.858;9.594;2023-03-03T09:55:29;81.63;;;24.80;;
18200;SDS011;9226;47.858;9.594;2023-03-03T10:14:30;77.40;;;24.87;;
18200;SDS011;9226;47.858;9.594;2023-03-03T10:17:14;68.30;;;23.77;;
18200;SDS011;9226;47.858;9.594;2023-03-03T10:53:31;73.40;;;23.50;;
18200;SDS011;9226;47.858;9.594;2023-03-03T11:04:49;81.47;;;23.73;;
18200;SDS011;9226;47.858;9.594;2023-03-03T11:07:45;65.00;;;22.80;;
18200;SDS011;9226;47.858;9.594;2023-03-03T11:30:33;74.67;;;25.23;;
18200;SDS011;9226;47.858;9.594;2023-03-03T11:35:48;80.87;;;23.40;;
18200;SDS011;9226;47.858;9.594;2023-03-03T11:41:16;76.53;;;25.60;;
18200;SDS011;9226;47.858;9.594;2023-03-03T11:44:02;73.90;;;25.30;;
18200;SDS011;9226;47.858;9.594;2023-03-03T11:49:46;71.60;;;23.83;;
18200;SDS011;9226;47.858;9.594;2023-03-03T12:01:04;73.20;;;24.77;;
18200;SDS011;9226;47.858;9.594;2023-03-03T12:03:52;66.97;;;23.67;;
18200;SDS011;9226;47.858;9.594;2023-03-03T12:22:49;76.23;;;25.80;;
18200;SDS011;9226;47.858;9.594;2023-03-03T12:25:28;69.87;;;26.90;;
18200;SDS011;9226;47.858;9.594;2023-03-03T12:38:44;76.27;;;26.27;;
18200;SDS011;9226;47.858;9.594;2023-03-03T13:00:29;74.67;;;25.03;;
18200;SDS011;9226;47.858;9.594;2023-03-03T13:03:04;68.53;;;25.97;;
18200;SDS011;9226;47.858;9.594;2023-03-03T13:13:47;65.00;;;25.27;;
18200;SDS011;9226;47.858;9.594;2023-03-03T13:16:18;68.60;;;25.10;;
18200;SDS011;9226;47.858;9.594;2023-03-03T13:19:03;68.77;;;26.20;;
18200;SDS011;9226;47.858;9.594;2023-03-03T13:21:38;66.00;;;26.50;;
18200;SDS011;9226;47.858;9.594;2023-03-03T13:24:16;68.57;;;25.83;;
18200;SDS011;9226;47.858;9.594;2023-03-03T13:26:45;69.27;;;26.27;;
18200;SDS011;9226;47.858;9.594;2023-03-03T13:34:38;70.43;;;25.77;;
18200;SDS011;9226;47.858;9.594;2023-03-03T13:37:22;72.13;;;24.30;;
18200;SDS011;9226;47.858;9.594;2023-03-03T13:39:55;70.37;;;25.23;;
18200;SDS011;9226;47.858;9.594;2023-03-03T13:45:17;64.77;;;25.80;;
18200;SDS011;9226;47.858;9.594;2023-03-03T13:50:26;70.10;;;25.17;;
18200;SDS011;9226;47.858;9.594;2023-03-03T13:53:11;61.33;;;25.37;;
18200;SDS011;9226;47.858;9.594;2023-03-03T14:06:46;75.73;;;25.60;;
18200;SDS011;9226;47.858;9.594;2023-03-03T14:12:28;68.73;;;24.83;;
18200;SDS011;9226;47.858;9.594;2023-03-03T14:20:39;64.47;;;24.73;;
18200;SDS011;9226;47.858;9.594;2023-03-03T14:23:15;66.73;;;24.07;;
18200;SDS011;9226;47.858;9.594;2023-03-03T14:25:56;70.73;;;24.77;;
18200;SDS011;9226;47.858;9.594;2023-03-03T14:28:28;65.53;;;24.57;;
18200;SDS011;9226;47.858;9.594;2023-03-03T14:31:09;61.43;;;23.43;;
18200;SDS011;9226;47.858;9.594;2023-03-03T14:33:45;64.83;;;24.40;;
18200;SDS011;9226;47.858;9.594;2023-03-03T14:36:41;65.07;;;23.70;;
18200;SDS011;9226;47.858;9.594;2023-03-03T14:39:50;64.37;;;24.20;;
18200;SDS011;9226;47.858;9.594;2023-03-03T14:41:57;68.30;;;24.17;;
18200;SDS011;9226;47.858;9.594;2023-03-03T14:49:35;64.57;;;23.87;;
18200;SDS011;9226;47.858;9.594;2023-03-03T14:52:08;70.30;;;25.33;;
18200;SDS011;9226;47.858;9.594;2023-03-03T14:54:44;80.83;;;26.30;;
18200;SDS011;9226;47.858;9.594;2023-03-03T14:57:20;67.03;;;24.47;;
18200;SDS011;9226;47.858;9.594;2023-03-03T15:00:27;66.33;;;24.53;;
18200;SDS011;9226;47.858;9.594;2023-03-03T15:05:52;74.87;;;26.23;;
18200;SDS011;9226;47.858;9.594;2023-03-03T15:08:39;60.63;;;22.77;;
18200;SDS011;9226;47.858;9.594;2023-03-03T15:11:25;62.73;;;22.97;;
18200;SDS011;9226;47.858;9.594;2023-03-03T15:14:03;60.10;;;23.73;;
18200;SDS011;9226;47.858;9.594;2023-03-03T15:16:36;72.00;;;22.43;;
18200;SDS011;9226;47.858;9.594;2023-03-03T15:24:39;62.80;;;24.23;;
18200;SDS011;9226;47.858;9.594;2023-03-03T15:27:18;69.47;;;24.47;;
18200;SDS011;9226;47.858;9.594;2023-03-03T15:30:14;64.73;;;23.63;;
18200;SDS011;9226;47.858;9.594;2023-03-03T15:32:57;67.83;;;23.83;;
18200;SDS011;9226;47.858;9.594;2023-03-03T15:35:46;67.70;;;23.07;;
18200;SDS011;9226;47.858;9.594;2023-03-03T15:40:48;66.77;;;23.93;;
18200;SDS011;9226;47.858;9.594;2023-03-03T15:43:26;65.60;;;25.27;;
18200;SDS011;9226;47.858;9.594;2023-03-03T15:46:34;63.77;;;23.67;;
18200;SDS011;9226;47.858;9.594;2023-03-03T16:00:32;64.43;;;23.73;;
18200;SDS011;9226;47.858;9.594;2023-03-03T16:05:55;66.07;;;24.70;;
18200;SDS011;9226;47.858;9.594;2023-03-03T16:13:56;71.57;;;26.83;;
18200;SDS011;9226;47.858;9.594;2023-03-03T16:25:12;64.30;;;24.07;;
18200;SDS011;9226;47.858;9.594;2023-03-03T16:32:52;69.97;;;24.43;;
18200;SDS011;9226;47.858;9.594;2023-03-03T16:35:22;71.60;;;23.47;;
18200;SDS011;9226;47.858;9.594;2023-03-03T16:38:04;60.30;;;22.97;;
18200;SDS011;9226;47.858;9.594;2023-03-03T16:40:46;73.70;;;23.77;;
18200;SDS011;9226;47.858;9.594;2023-03-03T16:54:15;68.73;;;24.33;;
18200;SDS011;9226;47.858;9.594;2023-03-03T16:56:57;70.90;;;23.47;;
18200;SDS011;9226;47.858;9.594;2023-03-03T16:59:46;68.20;;;23.90;;
18200;SDS011;9226;47.858;9.594;2023-03-03T17:07:55;84.57;;;25.40;;
18200;SDS011;9226;47.858;9.594;2023-03-03T17:16:08;70.40;;;25.97;;
18200;SDS011;9226;47.858;9.594;2023-03-03T17:24:21;63.40;;;24.13;;
18200;SDS011;9226;47.858;9.594;2023-03-03T17:29:53;62.83;;;24.37;;
18200;SDS011;9226;47.858;9.594;2023-03-03T17:38:14;71.53;;;25.23;;
18200;SDS011;9226;47.858;9.594;2023-03-03T17:40:54;67.23;;;25.17;;
18200;SDS011;9226;47.858;9.594;2023-03-03T17:49:29;71.20;;;25.27;;
18200;SDS011;9226;47.858;9.594;2023-03-03T18:08:23;68.53;;;25.07;;
18200;SDS011;9226;47.858;9.594;2023-03-03T18:22:21;77.73;;;24.63;;
18200;SDS011;9226;47.858;9.594;2023-03-03T18:24:58;69.97;;;25.77;;
18200;SDS011;9226;47.858;9.594;2023-03-03T18:27:32;64.00;;;24.10;;
18200;SDS011;9226;47.858;9.594;2023-03-03T18:32:41;65.67;;;23.93;;
18200;SDS011;9226;47.858;9.594;2023-03-03T18:35:30;73.73;;;25.20;;
18200;SDS011;9226;47.858;9.594;2023-03-03T18:49:04;72.80;;;24.27;;
18200;SDS011;9226;47.858;9.594;2023-03-03T18:59:07;77.60;;;24.00;;
18200;SDS011;9226;47.858;9.594;2023-03-03T19:01:34;72.50;;;24.77;;
18200;SDS011;9226;47.858;9.594;2023-03-03T19:09:05;67.10;;;24.03;;
18200;SDS011;9226;47.858;9.594;2023-03-03T19:14:17;79.60;;;27.10;;
18200;SDS011;9226;47.858;9.594;2023-03-03T19:16:43;88.60;;;29.07;;
18200;SDS011;9226;47.858;9.594;2023-03-03T19:19:14;86.30;;;32.00;;
18200;SDS011;9226;47.858;9.594;2023-03-03T19:21:47;86.63;;;30.63;;
18200;SDS011;9226;47.858;9.594;2023-03-03T19:27:06;111.10;;;36.73;;
18200;SDS011;9226;47.858;9.594;2023-03-03T19:40:45;72.47;;;24.63;;
18200;SDS011;9226;47.858;9.594;2023-03-03T19:46:36;72.57;;;25.43;;
18200;SDS011;9226;47.858;9.594;2023-03-03T19:51:50;79.30;;;25.57;;
18200;SDS011;9226;47.858;9.594;2023-03-03T20:00:03;70.17;;;24.57;;
18200;SDS011;9226;47.858;9.594;2023-03-03T20:08:27;81.07;;;27.43;;
18200;SDS011;9226;47.858;9.594;2023-03-03T20:13:38;69.33;;;25.87;;
18200;SDS011;9226;47.858;9.594;2023-03-03T20:16:17;76.17;;;27.47;;
18200;SDS011;9226;47.858;9.594;2023-03-03T20:21:34;80.87;;;29.80;;
18200;SDS011;9226;47.858;9.594;2023-03-03T20:54:12;83.53;;;27.83;;
18200;SDS011;9226;47.858;9.594;2023-03-03T20:56:53;83.40;;;27.73;;
18200;SDS011;9226;47.858;9.594;2023-03-03T21:02:16;79.90;;;27.03;;
18200;SDS011;9226;47.858;9.594;2023-03-03T21:05:07;68.37;;;26.80;;
18200;SDS011;9226;47.858;9.594;2023-03-03T21:07:33;74.70;;;27.93;;
18200;SDS011;9226;47.858;9.594;2023-03-03T21:10:12;78.70;;;27.53;;
18200;SDS011;9226;47.858;9.594;2023-03-03T21:12:40;98.33;;;31.00;;
18200;SDS011;9226;47.858;9.594;2023-03-03T21:15:07;89.97;;;29.47;;
18200;SDS011;9226;47.858;9.594;2023-03-03T21:17:46;92.60;;;31.40;;
18200;SDS011;9226;47.858;9.594;2023-03-03T21:22:43;84.93;;;30.20;;
18200;SDS011;9226;47.858;9.594;2023-03-03T21:25:11;89.03;;;30.27;;
18200;SDS011;9226;47.858;9.594;2023-03-03T21:28:41;83.43;;;31.17;;
18200;SDS011;9226;47.858;9.594;2023-03-03T21:38:55;81.90;;;30.10;;
18200;SDS011;9226;47.858;9.594;2023-03-03T21:41:22;82.63;;;30.43;;
18200;SDS011;9226;47.858;9.594;2023-03-03T21:43:49;87.33;;;29.83;;
18200;SDS011;9226;47.858;9.594;2023-03-03T21:46:23;87.07;;;32.43;;
18200;SDS011;9226;47.858;9.594;2023-03-03T21:48:49;88.70;;;32.07;;
18200;SDS011;9226;47.858;9.594;2023-03-03T21:51:16;83.37;;;31.83;;
18200;SDS011;9226;47.858;9.594;2023-03-03T21:53:41;86.53;;;30.33;;
18200;SDS011;9226;47.858;9.594;2023-03-03T21:56:08;75.93;;;29.20;;
18200;SDS011;9226;47.858;9.594;2023-03-03T21:58:34;81.07;;;29.53;;
18200;SDS011;9226;47.858;9.594;2023-03-03T22:01:02;80.20;;;28.70;;
18200;SDS011;9226;47.858;9.594;2023-03-03T22:03:28;80.10;;;27.83;;
18200;SDS011;9226;47.858;9.594;2023-03-03T22:05:54;78.03;;;28.83;;
18200;SDS011;9226;47.858;9.594;2023-03-03T22:08:20;84.60;;;29.93;;
18200;SDS011;9226;47.858;9.594;2023-03-03T22:10:47;76.53;;;28.67;;
18200;SDS011;9226;47.858;9.594;2023-03-03T22:13:18;83.60;;;29.97;;
18200;SDS011;9226;47.858;9.594;2023-03-03T22:15:45;83.30;;;28.77;;
18200;SDS011;9226;47.858;9.594;2023-03-03T22:18:11;79.10;;;29.80;;
18200;SDS011;9226;47.858;9.594;2023-03-03T22:20:37;79.13;;;27.40;;
18200;SDS011;9226;47.858;9.594;2023-03-03T22:23:02;79.70;;;28.03;;
18200;SDS011;9226;47.858;9.594;2023-03-03T22:25:27;77.83;;;28.13;;
18200;SDS011;9226;47.858;9.594;2023-03-03T22:27:53;77.60;;;28.67;;
18200;SDS011;9226;47.858;9.594;2023-03-03T22:30:18;81.37;;;28.57;;
18200;SDS011;9226;47.858;9.594;2023-03-03T22:32:44;71.80;;;26.50;;
18200;SDS011;9226;47.858;9.594;2023-03-03T22:35:09;82.80;;;28.97;;
18200;SDS011;9226;47.858;9.594;2023-03-03T22:37:34;67.27;;;27.00;;
18200;SDS011;9226;47.858;9.594;2023-03-03T22:40:00;76.27;;;26.30;;